sensor_id;sensor_type;location;lat;lon;timestamp;P1;durP1;ratioP1;P2;durP2;ratioP2
14092;SDS011;7123;49.468;10.992;2023-11-22T00:00:16;6.60;;;5.13;;
14092;SDS011;7123;49.468;10.992;2023-11-22T00:02:43;6.17;;;4.93;;
14092;SDS011;7123;49.468;10.992;2023-11-22T00:05:10;6.13;;;5.40;;
14092;SDS011;7123;49.468;10.992;2023-11-22T00:07:37;4.33;;;3.87;;
14092;SDS011;7123;49.468;10.992;2023-11-22T00:10:04;5.33;;;4.53;;
14092;SDS011;7123;49.468;10.992;2023-11-22T00:12:32;5.17;;;4.67;;
14092;SDS011;7123;49.468;10.992;2023-11-22T00:15:05;5.20;;;4.63;;
14092;SDS011;7123;49.468;10.992;2023-11-22T00:17:33;5.30;;;4.80;;
14092;SDS011;7123;49.468;10.992;2023-11-22T00:20:01;5.10;;;4.63;;
14092;SDS011;7123;49.468;10.992;2023-11-22T00:22:32;5.63;;;3.97;;
14092;SDS011;7123;49.468;10.992;2023-11-22T00:25:05;4.70;;;4.30;;
14092;SDS011;7123;49.468;10.992;2023-11-22T00:27:37;6.37;;;4.50;;
14092;SDS011;7123;49.468;10.992;2023-11-22T00:30:04;4.73;;;4.23;;
14092;SDS011;7123;49.468;10.992;2023-11-22T00:32:31;4.27;;;3.87;;
14092;SDS011;7123;49.468;10.992;2023-11-22T00:34:58;5.10;;;4.60;;
14092;SDS011;7123;49.468;10.992;2023-11-22T00:37:25;6.13;;;4.33;;
14092;SDS011;7123;49.468;10.992;2023-11-22T00:39:51;4.90;;;4.40;;
14092;SDS011;7123;49.468;10.992;2023-11-22T00:42:18;4.70;;;4.30;;
14092;SDS011;7123;49.468;10.992;2023-11-22T00:44:46;4.50;;;4.10;;
14092;SDS011;7123;49.468;10.992;2023-11-22T00:47:14;4.03;;;3.57;;
14092;SDS011;7123;49.468;10.992;2023-11-22T00:49:42;4.27;;;3.87;;
14092;SDS011;7123;49.468;10.992;2023-11-22T00:52:09;5.90;;;4.10;;
14092;SDS011;7123;49.468;10.992;2023-11-22T00:54:36;4.30;;;3.60;;
14092;SDS011;7123;49.468;10.992;2023-11-22T00:57:03;3.03;;;2.77;;
14092;SDS011;7123;49.468;10.992;2023-11-22T00:59:30;4.67;;;4.27;;
14092;SDS011;7123;49.468;10.992;2023-11-22T01:01:57;4.30;;;3.90;;
14092;SDS011;7123;49.468;10.992;2023-11-22T01:04:24;4.23;;;3.83;;
14092;SDS011;7123;49.468;10.992;2023-11-22T01:06:51;4.40;;;3.70;;
14092;SDS011;7123;49.468;10.992;2023-11-22T01:09:18;5.80;;;3.97;;
14092;SDS011;7123;49.468;10.992;2023-11-22T01:11:44;4.77;;;3.83;;
14092;SDS011;7123;49.468;10.992;2023-11-22T01:14:11;4.20;;;3.77;;
14092;SDS011;7123;49.468;10.992;2023-11-22T01:16:38;4.37;;;3.97;;
14092;SDS011;7123;49.468;10.992;2023-11-22T01:19:05;4.57;;;3.97;;
14092;SDS011;7123;49.468;10.992;2023-11-22T01:21:33;4.73;;;4.00;;
14092;SDS011;7123;49.468;10.992;2023-11-22T01:23:59;6.07;;;4.30;;
14092;SDS011;7123;49.468;10.992;2023-11-22T01:26:27;3.53;;;3.23;;
14092;SDS011;7123;49.468;10.992;2023-11-22T01:28:54;3.30;;;3.00;;
14092;SDS011;7123;49.468;10.992;2023-11-22T01:31:21;4.17;;;3.77;;
14092;SDS011;7123;49.468;10.992;2023-11-22T01:33:48;3.80;;;3.40;;
14092;SDS011;7123;49.468;10.992;2023-11-22T01:36:15;4.77;;;3.50;;
14092;SDS011;7123;49.468;10.992;2023-11-22T01:38:42;4.40;;;3.83;;
14092;SDS011;7123;49.468;10.992;2023-11-22T01:41:10;3.93;;;3.53;;
14092;SDS011;7123;49.468;10.992;2023-11-22T01:43:39;3.70;;;3.40;;
14092;SDS011;7123;49.468;10.992;2023-11-22T01:46:07;3.73;;;3.40;;
14092;SDS011;7123;49.468;10.992;2023-11-22T01:48:36;3.53;;;3.23;;
14092;SDS011;7123;49.468;10.992;2023-11-22T01:51:03;4.20;;;3.80;;
14092;SDS011;7123;49.468;10.992;2023-11-22T01:53:31;3.43;;;3.20;;
14092;SDS011;7123;49.468;10.992;2023-11-22T01:55:58;4.60;;;4.00;;
14092;SDS011;7123;49.468;10.992;2023-11-22T01:58:26;3.80;;;3.40;;
14092;SDS011;7123;49.468;10.992;2023-11-22T02:00:53;5.00;;;3.53;;
14092;SDS011;7123;49.468;10.992;2023-11-22T02:03:21;4.40;;;4.00;;
14092;SDS011;7123;49.468;10.992;2023-11-22T02:05:48;4.10;;;3.77;;
14092;SDS011;7123;49.468;10.992;2023-11-22T02:08:16;4.13;;;3.40;;
14092;SDS011;7123;49.468;10.992;2023-11-22T02:10:45;3.70;;;3.23;;
14092;SDS011;7123;49.468;10.992;2023-11-22T02:13:15;5.57;;;3.70;;
14092;SDS011;7123;49.468;10.992;2023-11-22T02:15:42;4.93;;;3.97;;
14092;SDS011;7123;49.468;10.992;2023-11-22T02:18:08;4.37;;;3.50;;
14092;SDS011;7123;49.468;10.992;2023-11-22T02:20:39;4.30;;;3.67;;
14092;SDS011;7123;49.468;10.992;2023-11-22T02:23:07;3.80;;;3.50;;
14092;SDS011;7123;49.468;10.992;2023-11-22T02:25:35;3.97;;;3.63;;
14092;SDS011;7123;49.468;10.992;2023-11-22T02:28:02;4.00;;;3.57;;
14092;SDS011;7123;49.468;10.992;2023-11-22T02:30:29;3.43;;;3.13;;
14092;SDS011;7123;49.468;10.992;2023-11-22T02:32:55;3.57;;;3.27;;
14092;SDS011;7123;49.468;10.992;2023-11-22T02:35:22;4.00;;;3.53;;
14092;SDS011;7123;49.468;10.992;2023-11-22T02:37:49;3.50;;;3.20;;
14092;SDS011;7123;49.468;10.992;2023-11-22T02:40:17;4.20;;;3.80;;
14092;SDS011;7123;49.468;10.992;2023-11-22T02:42:46;5.23;;;3.73;;
14092;SDS011;7123;49.468;10.992;2023-11-22T02:45:17;4.33;;;3.27;;
14092;SDS011;7123;49.468;10.992;2023-11-22T02:47:45;5.30;;;3.77;;
14092;SDS011;7123;49.468;10.992;2023-11-22T02:50:12;4.10;;;3.67;;
14092;SDS011;7123;49.468;10.992;2023-11-22T02:52:40;3.70;;;3.40;;
14092;SDS011;7123;49.468;10.992;2023-11-22T02:55:08;3.97;;;3.30;;
14092;SDS011;7123;49.468;10.992;2023-11-22T02:57:38;4.10;;;3.80;;
14092;SDS011;7123;49.468;10.992;2023-11-22T03:00:08;3.70;;;3.40;;
14092;SDS011;7123;49.468;10.992;2023-11-22T03:02:41;3.43;;;3.13;;
14092;SDS011;7123;49.468;10.992;2023-11-22T03:05:09;3.40;;;3.10;;
14092;SDS011;7123;49.468;10.992;2023-11-22T03:07:36;4.17;;;3.43;;
14092;SDS011;7123;49.468;10.992;2023-11-22T03:10:04;4.07;;;3.47;;
14092;SDS011;7123;49.468;10.992;2023-11-22T03:12:33;4.83;;;3.20;;
14092;SDS011;7123;49.468;10.992;2023-11-22T03:15:01;4.10;;;3.30;;
14092;SDS011;7123;49.468;10.992;2023-11-22T03:17:28;3.77;;;3.43;;
14092;SDS011;7123;49.468;10.992;2023-11-22T03:19:56;3.53;;;3.23;;
14092;SDS011;7123;49.468;10.992;2023-11-22T03:22:23;6.27;;;3.57;;
14092;SDS011;7123;49.468;10.992;2023-11-22T03:24:51;4.60;;;3.60;;
14092;SDS011;7123;49.468;10.992;2023-11-22T03:27:21;5.03;;;3.30;;
14092;SDS011;7123;49.468;10.992;2023-11-22T03:29:49;4.80;;;3.50;;
14092;SDS011;7123;49.468;10.992;2023-11-22T03:32:16;3.70;;;3.40;;
14092;SDS011;7123;49.468;10.992;2023-11-22T03:34:43;5.50;;;3.73;;
14092;SDS011;7123;49.468;10.992;2023-11-22T03:37:10;3.77;;;3.27;;
14092;SDS011;7123;49.468;10.992;2023-11-22T03:39:37;3.77;;;3.47;;
14092;SDS011;7123;49.468;10.992;2023-11-22T03:42:04;3.93;;;3.47;;
14092;SDS011;7123;49.468;10.992;2023-11-22T03:44:31;4.40;;;4.00;;
14092;SDS011;7123;49.468;10.992;2023-11-22T03:46:57;3.20;;;3.00;;
14092;SDS011;7123;49.468;10.992;2023-11-22T03:49:24;3.50;;;3.13;;
14092;SDS011;7123;49.468;10.992;2023-11-22T03:51:51;5.33;;;3.60;;
14092;SDS011;7123;49.468;10.992;2023-11-22T03:54:18;5.17;;;3.50;;
14092;SDS011;7123;49.468;10.992;2023-11-22T03:56:44;3.87;;;3.47;;
14092;SDS011;7123;49.468;10.992;2023-11-22T03:59:11;3.77;;;3.47;;
14092;SDS011;7123;49.468;10.992;2023-11-22T04:01:38;3.77;;;3.37;;
14092;SDS011;7123;49.468;10.992;2023-11-22T04:04:05;4.13;;;3.80;;
14092;SDS011;7123;49.468;10.992;2023-11-22T04:06:32;3.80;;;3.50;;
14092;SDS011;7123;49.468;10.992;2023-11-22T04:08:59;3.70;;;3.40;;
14092;SDS011;7123;49.468;10.992;2023-11-22T04:11:27;4.40;;;3.60;;
14092;SDS011;7123;49.468;10.992;2023-11-22T04:13:55;4.03;;;3.63;;
14092;SDS011;7123;49.468;10.992;2023-11-22T04:16:22;4.27;;;3.87;;
14092;SDS011;7123;49.468;10.992;2023-11-22T04:18:49;4.30;;;3.90;;
14092;SDS011;7123;49.468;10.992;2023-11-22T04:21:16;4.50;;;3.87;;
14092;SDS011;7123;49.468;10.992;2023-11-22T04:23:43;4.47;;;3.77;;
14092;SDS011;7123;49.468;10.992;2023-11-22T04:26:10;4.77;;;4.27;;
14092;SDS011;7123;49.468;10.992;2023-11-22T04:28:37;4.03;;;3.63;;
14092;SDS011;7123;49.468;10.992;2023-11-22T04:31:04;3.97;;;3.57;;
14092;SDS011;7123;49.468;10.992;2023-11-22T04:33:31;5.43;;;4.40;;
14092;SDS011;7123;49.468;10.992;2023-11-22T04:35:58;5.63;;;3.83;;
14092;SDS011;7123;49.468;10.992;2023-11-22T04:38:24;4.60;;;4.20;;
14092;SDS011;7123;49.468;10.992;2023-11-22T04:40:51;6.13;;;4.40;;
14092;SDS011;7123;49.468;10.992;2023-11-22T04:43:18;5.17;;;4.27;;
14092;SDS011;7123;49.468;10.992;2023-11-22T04:45:45;6.23;;;4.53;;
14092;SDS011;7123;49.468;10.992;2023-11-22T04:48:12;4.77;;;4.10;;
14092;SDS011;7123;49.468;10.992;2023-11-22T04:50:42;4.93;;;4.30;;
14092;SDS011;7123;49.468;10.992;2023-11-22T04:53:09;4.20;;;3.80;;
14092;SDS011;7123;49.468;10.992;2023-11-22T04:55:37;4.23;;;3.87;;
14092;SDS011;7123;49.468;10.992;2023-11-22T04:58:04;6.47;;;4.30;;
14092;SDS011;7123;49.468;10.992;2023-11-22T05:00:30;5.00;;;3.73;;
14092;SDS011;7123;49.468;10.992;2023-11-22T05:02:57;4.73;;;4.23;;
14092;SDS011;7123;49.468;10.992;2023-11-22T05:05:24;4.83;;;4.17;;
14092;SDS011;7123;49.468;10.992;2023-11-22T05:07:51;6.17;;;4.27;;
14092;SDS011;7123;49.468;10.992;2023-11-22T05:10:19;4.30;;;3.90;;
14092;SDS011;7123;49.468;10.992;2023-11-22T05:12:45;5.03;;;4.10;;
14092;SDS011;7123;49.468;10.992;2023-11-22T05:15:12;4.63;;;4.20;;
14092;SDS011;7123;49.468;10.992;2023-11-22T05:17:40;5.47;;;4.57;;
14092;SDS011;7123;49.468;10.992;2023-11-22T05:20:07;5.83;;;4.13;;
14092;SDS011;7123;49.468;10.992;2023-11-22T05:22:37;4.53;;;4.10;;
14092;SDS011;7123;49.468;10.992;2023-11-22T05:25:04;5.30;;;4.13;;
14092;SDS011;7123;49.468;10.992;2023-11-22T05:27:32;5.80;;;4.73;;
14092;SDS011;7123;49.468;10.992;2023-11-22T05:29:59;5.90;;;4.10;;
14092;SDS011;7123;49.468;10.992;2023-11-22T05:32:27;7.07;;;4.20;;
14092;SDS011;7123;49.468;10.992;2023-11-22T05:34:55;6.27;;;4.47;;
14092;SDS011;7123;49.468;10.992;2023-11-22T05:37:22;5.10;;;4.30;;
14092;SDS011;7123;49.468;10.992;2023-11-22T05:39:50;6.23;;;4.83;;
14092;SDS011;7123;49.468;10.992;2023-11-22T05:42:17;6.73;;;4.73;;
14092;SDS011;7123;49.468;10.992;2023-11-22T05:44:44;5.37;;;4.77;;
14092;SDS011;7123;49.468;10.992;2023-11-22T05:47:11;7.43;;;5.40;;
14092;SDS011;7123;49.468;10.992;2023-11-22T05:49:39;5.77;;;5.03;;
14092;SDS011;7123;49.468;10.992;2023-11-22T05:52:06;7.23;;;5.23;;
14092;SDS011;7123;49.468;10.992;2023-11-22T05:54:33;6.93;;;5.30;;
14092;SDS011;7123;49.468;10.992;2023-11-22T05:56:59;6.43;;;5.00;;
14092;SDS011;7123;49.468;10.992;2023-11-22T05:59:26;6.97;;;5.83;;
14092;SDS011;7123;49.468;10.992;2023-11-22T06:01:53;6.73;;;5.43;;
14092;SDS011;7123;49.468;10.992;2023-11-22T06:04:20;7.73;;;5.40;;
14092;SDS011;7123;49.468;10.992;2023-11-22T06:06:46;7.23;;;5.67;;
14092;SDS011;7123;49.468;10.992;2023-11-22T06:09:14;6.67;;;5.03;;
14092;SDS011;7123;49.468;10.992;2023-11-22T06:11:40;7.73;;;5.77;;
14092;SDS011;7123;49.468;10.992;2023-11-22T06:14:07;6.47;;;5.53;;
14092;SDS011;7123;49.468;10.992;2023-11-22T06:16:35;9.50;;;5.80;;
14092;SDS011;7123;49.468;10.992;2023-11-22T06:19:02;6.80;;;5.63;;
14092;SDS011;7123;49.468;10.992;2023-11-22T06:21:29;7.50;;;5.90;;
14092;SDS011;7123;49.468;10.992;2023-11-22T06:23:56;7.77;;;5.80;;
14092;SDS011;7123;49.468;10.992;2023-11-22T06:26:24;6.70;;;5.77;;
14092;SDS011;7123;49.468;10.992;2023-11-22T06:28:52;7.93;;;5.80;;
14092;SDS011;7123;49.468;10.992;2023-11-22T06:31:18;10.63;;;7.10;;
14092;SDS011;7123;49.468;10.992;2023-11-22T06:33:45;9.07;;;6.87;;
14092;SDS011;7123;49.468;10.992;2023-11-22T06:36:12;9.03;;;7.17;;
14092;SDS011;7123;49.468;10.992;2023-11-22T06:38:41;10.70;;;7.07;;
14092;SDS011;7123;49.468;10.992;2023-11-22T06:41:08;9.70;;;7.27;;
14092;SDS011;7123;49.468;10.992;2023-11-22T06:43:34;13.13;;;8.40;;
14092;SDS011;7123;49.468;10.992;2023-11-22T06:46:01;10.80;;;7.67;;
14092;SDS011;7123;49.468;10.992;2023-11-22T06:48:32;10.60;;;8.10;;
14092;SDS011;7123;49.468;10.992;2023-11-22T06:50:59;9.57;;;7.33;;
14092;SDS011;7123;49.468;10.992;2023-11-22T06:53:27;9.43;;;7.47;;
14092;SDS011;7123;49.468;10.992;2023-11-22T06:55:54;10.57;;;7.57;;
14092;SDS011;7123;49.468;10.992;2023-11-22T06:58:20;9.87;;;7.47;;
14092;SDS011;7123;49.468;10.992;2023-11-22T07:00:47;9.53;;;7.40;;
14092;SDS011;7123;49.468;10.992;2023-11-22T07:03:14;10.23;;;7.80;;
14092;SDS011;7123;49.468;10.992;2023-11-22T07:05:42;12.37;;;8.63;;
14092;SDS011;7123;49.468;10.992;2023-11-22T07:08:09;10.33;;;7.27;;
14092;SDS011;7123;49.468;10.992;2023-11-22T07:10:37;10.70;;;6.70;;
14092;SDS011;7123;49.468;10.992;2023-11-22T07:13:04;12.63;;;7.63;;
14092;SDS011;7123;49.468;10.992;2023-11-22T07:15:31;11.47;;;7.70;;
14092;SDS011;7123;49.468;10.992;2023-11-22T07:17:58;12.77;;;7.80;;
14092;SDS011;7123;49.468;10.992;2023-11-22T07:20:25;14.67;;;8.70;;
14092;SDS011;7123;49.468;10.992;2023-11-22T07:22:53;10.93;;;7.83;;
14092;SDS011;7123;49.468;10.992;2023-11-22T07:25:23;11.97;;;7.60;;
14092;SDS011;7123;49.468;10.992;2023-11-22T07:27:53;9.87;;;7.00;;
14092;SDS011;7123;49.468;10.992;2023-11-22T07:30:19;12.73;;;8.37;;
14092;SDS011;7123;49.468;10.992;2023-11-22T07:32:49;13.07;;;7.77;;
14092;SDS011;7123;49.468;10.992;2023-11-22T07:35:18;10.50;;;7.67;;
14092;SDS011;7123;49.468;10.992;2023-11-22T07:37:46;11.20;;;7.33;;
14092;SDS011;7123;49.468;10.992;2023-11-22T07:40:14;11.27;;;7.70;;
14092;SDS011;7123;49.468;10.992;2023-11-22T07:42:41;11.10;;;7.40;;
14092;SDS011;7123;49.468;10.992;2023-11-22T07:45:10;11.37;;;7.67;;
14092;SDS011;7123;49.468;10.992;2023-11-22T07:47:38;11.33;;;8.10;;
14092;SDS011;7123;49.468;10.992;2023-11-22T07:50:09;12.27;;;7.40;;
14092;SDS011;7123;49.468;10.992;2023-11-22T07:52:37;13.30;;;8.00;;
14092;SDS011;7123;49.468;10.992;2023-11-22T07:55:06;10.03;;;7.33;;
14092;SDS011;7123;49.468;10.992;2023-11-22T07:57:37;11.90;;;8.30;;
14092;SDS011;7123;49.468;10.992;2023-11-22T08:00:05;11.07;;;7.87;;
14092;SDS011;7123;49.468;10.992;2023-11-22T08:02:34;11.47;;;7.50;;
14092;SDS011;7123;49.468;10.992;2023-11-22T08:05:03;11.60;;;8.07;;
14092;SDS011;7123;49.468;10.992;2023-11-22T08:07:35;12.27;;;8.23;;
14092;SDS011;7123;49.468;10.992;2023-11-22T08:10:06;12.97;;;7.40;;
14092;SDS011;7123;49.468;10.992;2023-11-22T08:12:45;11.53;;;8.20;;
14092;SDS011;7123;49.468;10.992;2023-11-22T08:15:13;14.00;;;7.97;;
14092;SDS011;7123;49.468;10.992;2023-11-22T08:17:40;11.87;;;8.23;;
14092;SDS011;7123;49.468;10.992;2023-11-22T08:20:07;13.47;;;7.30;;
14092;SDS011;7123;49.468;10.992;2023-11-22T08:22:41;12.90;;;8.00;;
14092;SDS011;7123;49.468;10.992;2023-11-22T08:25:08;11.03;;;7.83;;
14092;SDS011;7123;49.468;10.992;2023-11-22T08:27:41;12.73;;;8.37;;
14092;SDS011;7123;49.468;10.992;2023-11-22T08:30:08;10.37;;;7.57;;
14092;SDS011;7123;49.468;10.992;2023-11-22T08:32:40;13.93;;;7.83;;
14092;SDS011;7123;49.468;10.992;2023-11-22T08:35:19;13.60;;;8.27;;
14092;SDS011;7123;49.468;10.992;2023-11-22T08:37:50;11.03;;;7.67;;
14092;SDS011;7123;49.468;10.992;2023-11-22T08:40:17;18.67;;;10.23;;
14092;SDS011;7123;49.468;10.992;2023-11-22T08:42:47;15.10;;;9.83;;
14092;SDS011;7123;49.468;10.992;2023-11-22T08:45:14;15.87;;;10.33;;
14092;SDS011;7123;49.468;10.992;2023-11-22T08:47:41;18.70;;;10.93;;
14092;SDS011;7123;49.468;10.992;2023-11-22T08:50:08;19.20;;;10.93;;
14092;SDS011;7123;49.468;10.992;2023-11-22T08:52:39;17.57;;;11.97;;
14092;SDS011;7123;49.468;10.992;2023-11-22T08:55:08;18.07;;;10.97;;
14092;SDS011;7123;49.468;10.992;2023-11-22T08:57:35;20.50;;;12.53;;
14092;SDS011;7123;49.468;10.992;2023-11-22T09:00:07;17.53;;;11.20;;
14092;SDS011;7123;49.468;10.992;2023-11-22T09:02:36;17.37;;;10.43;;
14092;SDS011;7123;49.468;10.992;2023-11-22T09:05:03;17.20;;;10.20;;
14092;SDS011;7123;49.468;10.992;2023-11-22T09:07:34;15.27;;;10.13;;
14092;SDS011;7123;49.468;10.992;2023-11-22T09:10:02;13.07;;;9.23;;
14092;SDS011;7123;49.468;10.992;2023-11-22T09:12:39;15.13;;;8.87;;
14092;SDS011;7123;49.468;10.992;2023-11-22T09:15:08;17.23;;;9.93;;
14092;SDS011;7123;49.468;10.992;2023-11-22T09:17:40;11.53;;;8.37;;
14092;SDS011;7123;49.468;10.992;2023-11-22T09:20:13;12.27;;;8.23;;
14092;SDS011;7123;49.468;10.992;2023-11-22T09:22:47;14.37;;;9.13;;
14092;SDS011;7123;49.468;10.992;2023-11-22T09:25:25;14.87;;;8.73;;
14092;SDS011;7123;49.468;10.992;2023-11-22T09:27:56;13.77;;;9.13;;
14092;SDS011;7123;49.468;10.992;2023-11-22T09:30:27;12.93;;;7.80;;
14092;SDS011;7123;49.468;10.992;2023-11-22T09:33:02;14.70;;;9.03;;
14092;SDS011;7123;49.468;10.992;2023-11-22T09:35:34;13.63;;;8.90;;
14092;SDS011;7123;49.468;10.992;2023-11-22T09:38:03;11.00;;;7.53;;
14092;SDS011;7123;49.468;10.992;2023-11-22T09:40:32;13.87;;;8.70;;
14092;SDS011;7123;49.468;10.992;2023-11-22T09:42:59;10.77;;;8.40;;
14092;SDS011;7123;49.468;10.992;2023-11-22T09:45:28;13.37;;;8.57;;
14092;SDS011;7123;49.468;10.992;2023-11-22T09:47:57;10.37;;;7.43;;
14092;SDS011;7123;49.468;10.992;2023-11-22T09:53:11;10.33;;;7.30;;
14092;SDS011;7123;49.468;10.992;2023-11-22T09:55:45;10.50;;;7.30;;
14092;SDS011;7123;49.468;10.992;2023-11-22T09:58:12;13.00;;;7.23;;
14092;SDS011;7123;49.468;10.992;2023-11-22T10:00:42;8.03;;;6.77;;
14092;SDS011;7123;49.468;10.992;2023-11-22T10:03:10;10.60;;;7.10;;
14092;SDS011;7123;49.468;10.992;2023-11-22T10:05:43;8.93;;;7.07;;
14092;SDS011;7123;49.468;10.992;2023-11-22T10:08:10;8.97;;;6.90;;
14092;SDS011;7123;49.468;10.992;2023-11-22T10:10:37;9.93;;;6.70;;
14092;SDS011;7123;49.468;10.992;2023-11-22T10:13:04;11.43;;;7.00;;
14092;SDS011;7123;49.468;10.992;2023-11-22T10:15:31;12.13;;;6.30;;
14092;SDS011;7123;49.468;10.992;2023-11-22T10:17:58;9.60;;;6.93;;
14092;SDS011;7123;49.468;10.992;2023-11-22T10:20:35;10.23;;;6.57;;
14092;SDS011;7123;49.468;10.992;2023-11-22T10:23:04;8.67;;;6.93;;
14092;SDS011;7123;49.468;10.992;2023-11-22T10:28:13;11.63;;;7.20;;
14092;SDS011;7123;49.468;10.992;2023-11-22T10:30:40;9.13;;;6.80;;
14092;SDS011;7123;49.468;10.992;2023-11-22T10:33:09;10.63;;;6.90;;
14092;SDS011;7123;49.468;10.992;2023-11-22T10:35:43;9.37;;;7.27;;
14092;SDS011;7123;49.468;10.992;2023-11-22T10:38:15;8.03;;;6.60;;
14092;SDS011;7123;49.468;10.992;2023-11-22T10:40:42;8.73;;;6.33;;
14092;SDS011;7123;49.468;10.992;2023-11-22T10:43:11;10.80;;;6.20;;
14092;SDS011;7123;49.468;10.992;2023-11-22T10:45:38;9.07;;;6.77;;
14092;SDS011;7123;49.468;10.992;2023-11-22T10:48:11;9.13;;;6.30;;
14092;SDS011;7123;49.468;10.992;2023-11-22T10:50:42;7.97;;;6.17;;
14092;SDS011;7123;49.468;10.992;2023-11-22T10:53:15;8.73;;;6.20;;
14092;SDS011;7123;49.468;10.992;2023-11-22T10:55:46;8.77;;;6.27;;
14092;SDS011;7123;49.468;10.992;2023-11-22T10:58:15;7.40;;;6.20;;
14092;SDS011;7123;49.468;10.992;2023-11-22T11:00:43;8.27;;;6.07;;
14092;SDS011;7123;49.468;10.992;2023-11-22T11:03:14;8.27;;;6.47;;
14092;SDS011;7123;49.468;10.992;2023-11-22T11:05:50;7.90;;;6.53;;
14092;SDS011;7123;49.468;10.992;2023-11-22T11:08:20;7.23;;;6.10;;
14092;SDS011;7123;49.468;10.992;2023-11-22T11:10:51;12.07;;;6.73;;
14092;SDS011;7123;49.468;10.992;2023-11-22T11:13:18;7.43;;;5.97;;
14092;SDS011;7123;49.468;10.992;2023-11-22T11:15:45;9.73;;;6.40;;
14092;SDS011;7123;49.468;10.992;2023-11-22T11:18:14;8.73;;;6.47;;
14092;SDS011;7123;49.468;10.992;2023-11-22T11:20:45;8.67;;;6.10;;
14092;SDS011;7123;49.468;10.992;2023-11-22T11:23:19;8.50;;;6.57;;
14092;SDS011;7123;49.468;10.992;2023-11-22T11:28:25;8.70;;;6.47;;
14092;SDS011;7123;49.468;10.992;2023-11-22T11:30:53;7.87;;;6.00;;
14092;SDS011;7123;49.468;10.992;2023-11-22T11:33:27;11.73;;;6.83;;
14092;SDS011;7123;49.468;10.992;2023-11-22T11:36:00;7.20;;;5.80;;
14092;SDS011;7123;49.468;10.992;2023-11-22T11:38:30;8.43;;;5.73;;
14092;SDS011;7123;49.468;10.992;2023-11-22T11:41:09;6.93;;;5.93;;
14092;SDS011;7123;49.468;10.992;2023-11-22T11:43:40;8.97;;;6.10;;
14092;SDS011;7123;49.468;10.992;2023-11-22T11:46:14;9.70;;;6.10;;
14092;SDS011;7123;49.468;10.992;2023-11-22T11:48:51;7.07;;;5.47;;
14092;SDS011;7123;49.468;10.992;2023-11-22T11:51:20;8.60;;;6.03;;
14092;SDS011;7123;49.468;10.992;2023-11-22T11:53:49;10.13;;;6.10;;
14092;SDS011;7123;49.468;10.992;2023-11-22T11:56:16;8.47;;;5.40;;
14092;SDS011;7123;49.468;10.992;2023-11-22T11:58:44;6.83;;;5.40;;
14092;SDS011;7123;49.468;10.992;2023-11-22T12:01:13;7.40;;;6.07;;
14092;SDS011;7123;49.468;10.992;2023-11-22T12:03:40;6.43;;;5.43;;
14092;SDS011;7123;49.468;10.992;2023-11-22T12:06:07;6.73;;;5.50;;
14092;SDS011;7123;49.468;10.992;2023-11-22T12:08:34;8.53;;;5.30;;
14092;SDS011;7123;49.468;10.992;2023-11-22T12:11:04;11.57;;;6.00;;
14092;SDS011;7123;49.468;10.992;2023-11-22T12:13:34;8.03;;;5.93;;
14092;SDS011;7123;49.468;10.992;2023-11-22T12:16:04;5.83;;;5.13;;
14092;SDS011;7123;49.468;10.992;2023-11-22T12:21:08;7.50;;;6.10;;
14092;SDS011;7123;49.468;10.992;2023-11-22T12:23:42;7.57;;;5.87;;
14092;SDS011;7123;49.468;10.992;2023-11-22T12:26:12;8.53;;;5.77;;
14092;SDS011;7123;49.468;10.992;2023-11-22T12:28:40;6.93;;;5.50;;
14092;SDS011;7123;49.468;10.992;2023-11-22T12:31:18;7.80;;;6.17;;
14092;SDS011;7123;49.468;10.992;2023-11-22T12:33:45;9.60;;;6.73;;
14092;SDS011;7123;49.468;10.992;2023-11-22T12:36:17;8.97;;;5.63;;
14092;SDS011;7123;49.468;10.992;2023-11-22T12:38:44;8.20;;;6.37;;
14092;SDS011;7123;49.468;10.992;2023-11-22T12:41:11;8.80;;;5.80;;
14092;SDS011;7123;49.468;10.992;2023-11-22T12:43:38;7.83;;;6.40;;
14092;SDS011;7123;49.468;10.992;2023-11-22T12:46:16;7.30;;;5.40;;
14092;SDS011;7123;49.468;10.992;2023-11-22T12:48:44;9.10;;;6.50;;
14092;SDS011;7123;49.468;10.992;2023-11-22T12:51:15;7.57;;;6.00;;
14092;SDS011;7123;49.468;10.992;2023-11-22T12:53:46;9.10;;;5.83;;
14092;SDS011;7123;49.468;10.992;2023-11-22T12:56:13;7.63;;;5.53;;
14092;SDS011;7123;49.468;10.992;2023-11-22T12:58:40;6.97;;;5.27;;
14092;SDS011;7123;49.468;10.992;2023-11-22T13:01:07;7.23;;;5.80;;
14092;SDS011;7123;49.468;10.992;2023-11-22T13:03:33;9.23;;;5.37;;
14092;SDS011;7123;49.468;10.992;2023-11-22T13:06:00;8.13;;;5.93;;
14092;SDS011;7123;49.468;10.992;2023-11-22T13:08:27;8.87;;;6.90;;
14092;SDS011;7123;49.468;10.992;2023-11-22T13:10:56;9.37;;;6.33;;
14092;SDS011;7123;49.468;10.992;2023-11-22T13:13:25;9.20;;;6.63;;
14092;SDS011;7123;49.468;10.992;2023-11-22T13:15:54;9.73;;;6.30;;
14092;SDS011;7123;49.468;10.992;2023-11-22T13:18:21;7.43;;;5.63;;
14092;SDS011;7123;49.468;10.992;2023-11-22T13:20:48;6.60;;;5.50;;
14092;SDS011;7123;49.468;10.992;2023-11-22T13:23:16;6.73;;;5.40;;
14092;SDS011;7123;49.468;10.992;2023-11-22T13:25:44;9.37;;;6.33;;
14092;SDS011;7123;49.468;10.992;2023-11-22T13:28:12;10.30;;;6.13;;
14092;SDS011;7123;49.468;10.992;2023-11-22T13:30:43;8.57;;;6.37;;
14092;SDS011;7123;49.468;10.992;2023-11-22T13:33:09;8.13;;;6.67;;
14092;SDS011;7123;49.468;10.992;2023-11-22T13:35:37;7.03;;;5.70;;
14092;SDS011;7123;49.468;10.992;2023-11-22T13:38:05;7.60;;;6.27;;
14092;SDS011;7123;49.468;10.992;2023-11-22T13:40:37;8.93;;;6.10;;
14092;SDS011;7123;49.468;10.992;2023-11-22T13:43:11;7.80;;;5.63;;
14092;SDS011;7123;49.468;10.992;2023-11-22T13:45:43;8.50;;;5.87;;
14092;SDS011;7123;49.468;10.992;2023-11-22T13:48:11;8.33;;;5.90;;
14092;SDS011;7123;49.468;10.992;2023-11-22T13:50:39;11.10;;;6.97;;
14092;SDS011;7123;49.468;10.992;2023-11-22T13:53:05;11.40;;;6.93;;
14092;SDS011;7123;49.468;10.992;2023-11-22T13:55:35;9.90;;;7.00;;
14092;SDS011;7123;49.468;10.992;2023-11-22T13:58:03;9.73;;;6.93;;
14092;SDS011;7123;49.468;10.992;2023-11-22T14:00:31;9.73;;;7.03;;
14092;SDS011;7123;49.468;10.992;2023-11-22T14:03:02;9.20;;;6.00;;
14092;SDS011;7123;49.468;10.992;2023-11-22T14:05:34;9.27;;;6.73;;
14092;SDS011;7123;49.468;10.992;2023-11-22T14:08:04;8.73;;;6.47;;
14092;SDS011;7123;49.468;10.992;2023-11-22T14:10:34;9.90;;;7.00;;
14092;SDS011;7123;49.468;10.992;2023-11-22T14:13:01;11.73;;;7.27;;
14092;SDS011;7123;49.468;10.992;2023-11-22T14:15:29;9.10;;;6.50;;
14092;SDS011;7123;49.468;10.992;2023-11-22T14:17:57;11.63;;;7.20;;
14092;SDS011;7123;49.468;10.992;2023-11-22T14:20:24;10.30;;;7.33;;
14092;SDS011;7123;49.468;10.992;2023-11-22T14:22:51;10.37;;;7.17;;
14092;SDS011;7123;49.468;10.992;2023-11-22T14:25:19;10.53;;;6.87;;
14092;SDS011;7123;49.468;10.992;2023-11-22T14:27:46;13.70;;;7.93;;
14092;SDS011;7123;49.468;10.992;2023-11-22T14:30:20;9.87;;;7.53;;
14092;SDS011;7123;49.468;10.992;2023-11-22T14:32:48;10.43;;;7.67;;
14092;SDS011;7123;49.468;10.992;2023-11-22T14:35:17;12.13;;;7.07;;
14092;SDS011;7123;49.468;10.992;2023-11-22T14:37:44;10.03;;;6.57;;
14092;SDS011;7123;49.468;10.992;2023-11-22T14:40:11;11.07;;;7.20;;
14092;SDS011;7123;49.468;10.992;2023-11-22T14:42:46;9.93;;;7.13;;
14092;SDS011;7123;49.468;10.992;2023-11-22T14:45:18;9.97;;;7.17;;
14092;SDS011;7123;49.468;10.992;2023-11-22T14:47:48;12.53;;;7.27;;
14092;SDS011;7123;49.468;10.992;2023-11-22T14:50:18;13.70;;;8.67;;
14092;SDS011;7123;49.468;10.992;2023-11-22T14:52:47;13.00;;;7.87;;
14092;SDS011;7123;49.468;10.992;2023-11-22T14:55:15;11.10;;;8.20;;
14092;SDS011;7123;49.468;10.992;2023-11-22T14:57:42;11.80;;;7.90;;
14092;SDS011;7123;49.468;10.992;2023-11-22T15:00:09;11.93;;;7.57;;